»·PEaware :: N103VT KPSP-KTOA

N103VT :: KPSP-KTOA

FLIGHT INFORMATION

Flight Status: Arrived
Operator: Privately registered:
United States
More flights under this callsign
Pilot: Dean S. (16265)
Aircraft: CESSNA 172 SKYHAWK
(C172)
More flights by this aircraft type
Origin: KPSP Palm Springs Intl
United States
Destination: KTOA Zamperini
United States
More flights between these airports :: More routes between these airports
Route: DEWAY ACINS V283 SLI
File this flight plan on PilotEdge
Remarks:
Altitude:
(Current/Filed)
6,500ft
Speed:
(Current/Filed)
110kts
Departed: 28-Sep-17 03:51 PM
Arrived: 28-Sep-17 04:46 PM
Distance/Time
Traveled:
91nm/0:54
Distance/Time
To Go:
Arrived

Flight Plot

Page will automatically refresh every two minutes.

Flight plan parsing failed; only flown route is shown


Map Options




Map Legend


Flown Route
Filed Route
Departure Airport
Arrival Airport
Navaid (VOR, NDB)
Fix

Horizontal Profiles

Position Reports

Time Latitude Longitude Heading Altitude Ground
Speed
28-Sep-17 15:39 33.825142 -116.508858 127 480ft 0kts
28-Sep-17 15:40 33.825142 -116.508857 127 480ft 0kts
28-Sep-17 15:41 33.825142 -116.508857 127 480ft 0kts
28-Sep-17 15:42 33.825142 -116.508857 127 480ft 0kts
28-Sep-17 15:43 33.825142 -116.508857 127 480ft 0kts
28-Sep-17 15:44 33.825142 -116.508857 127 480ft 0kts
28-Sep-17 15:45 33.825142 -116.508857 127 480ft 0kts
28-Sep-17 15:46 33.825142 -116.508857 127 480ft 0kts
28-Sep-17 15:47 33.825141 -116.508856 127 480ft 0kts
28-Sep-17 15:48 33.825824 -116.507614 83 480ft 8kts
28-Sep-17 15:49 33.825069 -116.505187 145 480ft 12kts
28-Sep-17 15:50 33.821895 -116.502398 146 480ft 15kts
28-Sep-17 15:51 33.818663 -116.499648 142 480ft 14kts
28-Sep-17 15:52 33.817635 -116.497893 36 480ft 0kts
28-Sep-17 15:53 33.817648 -116.497881 40 480ft 0kts
28-Sep-17 15:54 33.818275 -116.497496 324 480ft 0kts
28-Sep-17 15:55 33.829914 -116.508254 323 686ft 81kts
28-Sep-17 15:56 33.847910 -116.527501 312 1460ft 86kts
28-Sep-17 15:57 33.863668 -116.549910 306 2245ft 89kts
28-Sep-17 15:58 33.875569 -116.575851 296 3039ft 88kts
28-Sep-17 15:59 33.884219 -116.603953 289 3771ft 90kts
28-Sep-17 16:00 33.890315 -116.632096 285 4539ft 83kts
28-Sep-17 16:01 33.894219 -116.656986 294 5262ft 66kts
28-Sep-17 16:02 33.899039 -116.678903 290 5631ft 84kts
28-Sep-17 16:03 33.909313 -116.711727 288 5818ft 119kts
28-Sep-17 16:04 33.920123 -116.750799 288 5925ft 124kts
28-Sep-17 16:05 33.930310 -116.788351 283 6349ft 109kts
28-Sep-17 16:06 33.935895 -116.826271 278 6536ft 124kts
28-Sep-17 16:07 33.939040 -116.868421 271 6513ft 128kts
28-Sep-17 16:08 33.939910 -116.911029 271 6505ft 127kts
28-Sep-17 16:09 33.940780 -116.953677 271 6497ft 127kts
28-Sep-17 16:10 33.941647 -116.996210 271 6486ft 127kts
28-Sep-17 16:11 33.942515 -117.038758 271 6474ft 127kts
28-Sep-17 16:12 33.941330 -117.081411 266 6463ft 127kts
28-Sep-17 16:13 33.939415 -117.123907 268 6453ft 127kts
28-Sep-17 16:14 33.930783 -117.161005 181 6443ft 126kts
28-Sep-17 16:15 33.895759 -117.164240 188 6437ft 127kts
28-Sep-17 16:16 33.860833 -117.170447 188 6436ft 126kts
28-Sep-17 16:17 33.825963 -117.176642 188 6437ft 126kts
28-Sep-17 16:18 33.791235 -117.184456 195 6439ft 126kts
28-Sep-17 16:19 33.770140 -117.209411 286 6448ft 125kts
28-Sep-17 16:20 33.775843 -117.251141 274 6428ft 127kts
28-Sep-17 16:21 33.778557 -117.293452 274 6424ft 127kts
28-Sep-17 16:22 33.780368 -117.335786 272 6422ft 127kts
28-Sep-17 16:23 33.781856 -117.378286 272 6419ft 127kts
28-Sep-17 16:24 33.783339 -117.420656 272 6415ft 127kts
28-Sep-17 16:25 33.784826 -117.463145 272 6414ft 127kts
28-Sep-17 16:26 33.784921 -117.505516 269 6414ft 127kts
28-Sep-17 16:27 33.784556 -117.547874 269 6414ft 127kts
28-Sep-17 16:28 33.784190 -117.590397 269 6414ft 127kts
28-Sep-17 16:29 33.783825 -117.632772 269 6414ft 127kts
28-Sep-17 16:30 33.783460 -117.675155 269 6414ft 127kts
28-Sep-17 16:31 33.783094 -117.717684 269 6414ft 127kts
28-Sep-17 16:32 33.782729 -117.760065 269 6414ft 127kts
28-Sep-17 16:33 33.782362 -117.802776 269 6088ft 128kts
28-Sep-17 16:34 33.781992 -117.845715 269 5290ft 128kts
28-Sep-17 16:35 33.781626 -117.888209 269 4556ft 122kts
28-Sep-17 16:36 33.781303 -117.925742 269 4489ft 105kts
28-Sep-17 16:37 33.780989 -117.962238 269 4493ft 113kts
28-Sep-17 16:38 33.780662 -118.000221 269 4492ft 114kts
28-Sep-17 16:39 33.780342 -118.037338 269 4489ft 105kts
28-Sep-17 16:40 33.780046 -118.071687 269 4493ft 101kts
28-Sep-17 16:41 33.779751 -118.106044 269 4497ft 103kts
28-Sep-17 16:42 33.779339 -118.140791 268 4499ft 104kts
28-Sep-17 16:43 33.770495 -118.172226 243 3931ft 107kts
28-Sep-17 16:44 33.760146 -118.205783 249 2878ft 104kts
28-Sep-17 16:45 33.753334 -118.237273 263 2320ft 95kts
28-Sep-17 16:46 33.757161 -118.264751 296 2066ft 83kts
28-Sep-17 16:47 33.770782 -118.289584 310 1540ft 86kts
28-Sep-17 16:48 33.785897 -118.312711 311 846ft 83kts
28-Sep-17 16:49 33.799161 -118.332348 308 154ft 56kts
28-Sep-17 16:50 33.800809 -118.335740 157 106ft 0kts
28-Sep-17 16:51 33.800794 -118.335733 157 106ft 2kts
28-Sep-17 16:52 33.799376 -118.336737 299 106ft 9kts
28-Sep-17 16:53 33.799705 -118.339458 185 106ft 5kts

Navigation Log

Ident Type
Flight plan parsing failed, navigation log unavailable